sensor_id;sensor_type;location;lat;lon;timestamp;pressure;altitude;pressure_sealevel;temperature;humidity
72585;BME280;73873;40.084;32.908;2024-02-23T00:02:06;89946.53;;;2.37;65.81
72585;BME280;73873;40.084;32.908;2024-02-23T00:04:46;89957.84;;;2.34;65.42
72585;BME280;73873;40.084;32.908;2024-02-23T00:07:15;89956.13;;;2.44;65.25
72585;BME280;73873;40.084;32.908;2024-02-23T00:09:42;89945.84;;;2.33;66.94
72585;BME280;73873;40.084;32.908;2024-02-23T00:12:09;89949.38;;;1.90;70.34
72585;BME280;73873;40.084;32.908;2024-02-23T00:14:36;89945.75;;;1.84;70.57
72585;BME280;73873;40.084;32.908;2024-02-23T00:17:03;89950.53;;;1.89;69.54
72585;BME280;73873;40.084;32.908;2024-02-23T00:19:31;89947.53;;;1.71;70.04
72585;BME280;73873;40.084;32.908;2024-02-23T00:21:58;89938.28;;;1.43;72.83
72585;BME280;73873;40.084;32.908;2024-02-23T00:24:26;89938.28;;;1.23;74.62
72585;BME280;73873;40.084;32.908;2024-02-23T00:26:53;89936.41;;;1.24;74.40
72585;BME280;73873;40.084;32.908;2024-02-23T00:29:20;89933.72;;;1.27;73.48
72585;BME280;73873;40.084;32.908;2024-02-23T00:31:47;89933.19;;;1.56;71.47
72585;BME280;73873;40.084;32.908;2024-02-23T00:34:14;89934.03;;;1.69;70.89
72585;BME280;73873;40.084;32.908;2024-02-23T00:36:42;89928.44;;;1.87;69.75
72585;BME280;73873;40.084;32.908;2024-02-23T00:39:10;89927.31;;;1.68;71.48
72585;BME280;73873;40.084;32.908;2024-02-23T00:41:37;89935.50;;;1.54;72.02
72585;BME280;73873;40.084;32.908;2024-02-23T00:44:04;89929.50;;;1.53;71.77
72585;BME280;73873;40.084;32.908;2024-02-23T00:46:31;89931.97;;;1.40;72.84
72585;BME280;73873;40.084;32.908;2024-02-23T00:48:58;89926.47;;;1.55;71.32
72585;BME280;73873;40.084;32.908;2024-02-23T00:51:25;89925.03;;;1.70;70.13
72585;BME280;73873;40.084;32.908;2024-02-23T00:53:52;89933.91;;;1.76;69.71
72585;BME280;73873;40.084;32.908;2024-02-23T00:56:19;89927.38;;;1.84;68.79
72585;BME280;73873;40.084;32.908;2024-02-23T00:58:53;89928.66;;;1.76;70.20
72585;BME280;73873;40.084;32.908;2024-02-23T01:01:20;89937.06;;;1.08;72.50
72585;BME280;73873;40.084;32.908;2024-02-23T01:03:47;89927.69;;;0.87;74.45
72585;BME280;73873;40.084;32.908;2024-02-23T01:06:14;89919.25;;;1.19;72.09
72585;BME280;73873;40.084;32.908;2024-02-23T01:08:41;89924.59;;;1.35;71.46
72585;BME280;73873;40.084;32.908;2024-02-23T01:11:08;89926.78;;;1.57;70.33
72585;BME280;73873;40.084;32.908;2024-02-23T01:13:35;89916.50;;;1.66;70.16
72585;BME280;73873;40.084;32.908;2024-02-23T01:16:03;89910.97;;;1.80;69.27
72585;BME280;73873;40.084;32.908;2024-02-23T01:18:30;89915.38;;;1.83;68.42
72585;BME280;73873;40.084;32.908;2024-02-23T01:20:57;89912.25;;;1.72;69.62
72585;BME280;73873;40.084;32.908;2024-02-23T01:23:24;89900.84;;;1.79;69.18
72585;BME280;73873;40.084;32.908;2024-02-23T01:25:51;89908.72;;;1.79;69.04
72585;BME280;73873;40.084;32.908;2024-02-23T01:28:18;89900.09;;;1.78;68.81
72585;BME280;73873;40.084;32.908;2024-02-23T01:30:45;89905.16;;;1.69;69.54
72585;BME280;73873;40.084;32.908;2024-02-23T01:33:12;89911.13;;;1.53;70.76
72585;BME280;73873;40.084;32.908;2024-02-23T01:35:39;89904.06;;;1.30;72.13
72585;BME280;73873;40.084;32.908;2024-02-23T01:38:07;89904.38;;;1.32;72.21
72585;BME280;73873;40.084;32.908;2024-02-23T01:40:34;89901.16;;;1.45;70.86
72585;BME280;73873;40.084;32.908;2024-02-23T01:43:02;89911.38;;;1.59;69.86
72585;BME280;73873;40.084;32.908;2024-02-23T01:45:30;89909.44;;;1.63;70.06
72585;BME280;73873;40.084;32.908;2024-02-23T01:48:01;89909.44;;;1.63;70.22
72585;BME280;73873;40.084;32.908;2024-02-23T01:50:29;89909.56;;;1.56;69.91
72585;BME280;73873;40.084;32.908;2024-02-23T01:53:01;89913.78;;;1.69;69.12
72585;BME280;73873;40.084;32.908;2024-02-23T01:55:29;89907.72;;;1.53;70.41
72585;BME280;73873;40.084;32.908;2024-02-23T01:58:02;89904.97;;;1.60;70.01
72585;BME280;73873;40.084;32.908;2024-02-23T02:00:35;89902.50;;;1.33;72.01
72585;BME280;73873;40.084;32.908;2024-02-23T02:03:02;89910.69;;;1.15;72.87
72585;BME280;73873;40.084;32.908;2024-02-23T02:05:30;89900.91;;;1.19;72.47
72585;BME280;73873;40.084;32.908;2024-02-23T02:07:57;89901.63;;;1.00;72.83
72585;BME280;73873;40.084;32.908;2024-02-23T02:10:25;89900.59;;;0.94;73.15
72585;BME280;73873;40.084;32.908;2024-02-23T02:12:52;89899.94;;;0.66;76.17
72585;BME280;73873;40.084;32.908;2024-02-23T02:15:20;89901.97;;;0.78;74.47
72585;BME280;73873;40.084;32.908;2024-02-23T02:17:47;89903.53;;;0.76;75.27
72585;BME280;73873;40.084;32.908;2024-02-23T02:20:14;89901.25;;;0.78;74.70
72585;BME280;73873;40.084;32.908;2024-02-23T02:22:41;89893.88;;;0.93;73.69
72585;BME280;73873;40.084;32.908;2024-02-23T02:25:08;89894.84;;;1.02;72.82
72585;BME280;73873;40.084;32.908;2024-02-23T02:27:35;89899.00;;;1.00;72.76
72585;BME280;73873;40.084;32.908;2024-02-23T02:30:02;89898.06;;;1.10;72.21
72585;BME280;73873;40.084;32.908;2024-02-23T02:32:29;89899.47;;;0.71;74.61
72585;BME280;73873;40.084;32.908;2024-02-23T02:35:01;89893.34;;;0.58;74.61
72585;BME280;73873;40.084;32.908;2024-02-23T02:37:28;89889.28;;;0.53;75.74
72585;BME280;73873;40.084;32.908;2024-02-23T02:39:55;89893.06;;;0.52;76.00
72585;BME280;73873;40.084;32.908;2024-02-23T02:42:22;89885.88;;;0.56;76.21
72585;BME280;73873;40.084;32.908;2024-02-23T02:44:49;89895.56;;;0.60;75.53
72585;BME280;73873;40.084;32.908;2024-02-23T02:47:16;89895.31;;;0.54;75.66
72585;BME280;73873;40.084;32.908;2024-02-23T02:49:43;89891.09;;;0.80;73.86
72585;BME280;73873;40.084;32.908;2024-02-23T02:52:10;89905.31;;;0.82;74.23
72585;BME280;73873;40.084;32.908;2024-02-23T02:54:37;89902.09;;;0.95;73.68
72585;BME280;73873;40.084;32.908;2024-02-23T02:57:04;89911.91;;;0.91;73.47
72585;BME280;73873;40.084;32.908;2024-02-23T02:59:34;89915.59;;;0.93;72.99
72585;BME280;73873;40.084;32.908;2024-02-23T03:02:01;89915.69;;;1.09;72.45
72585;BME280;73873;40.084;32.908;2024-02-23T03:04:28;89921.88;;;0.99;72.54
72585;BME280;73873;40.084;32.908;2024-02-23T03:06:55;89918.47;;;0.99;72.91
72585;BME280;73873;40.084;32.908;2024-02-23T03:09:22;89919.63;;;0.98;72.49
72585;BME280;73873;40.084;32.908;2024-02-23T03:11:49;89917.16;;;0.91;73.58
72585;BME280;73873;40.084;32.908;2024-02-23T03:14:16;89907.44;;;0.88;73.32
72585;BME280;73873;40.084;32.908;2024-02-23T03:16:43;89912.28;;;0.89;73.46
72585;BME280;73873;40.084;32.908;2024-02-23T03:19:10;89915.09;;;0.78;74.53
72585;BME280;73873;40.084;32.908;2024-02-23T03:21:36;89909.50;;;0.53;76.37
72585;BME280;73873;40.084;32.908;2024-02-23T03:24:05;89914.66;;;0.37;78.26
72585;BME280;73873;40.084;32.908;2024-02-23T03:26:34;89915.78;;;0.36;77.99
72585;BME280;73873;40.084;32.908;2024-02-23T03:29:01;89915.53;;;0.26;79.21
72585;BME280;73873;40.084;32.908;2024-02-23T03:31:28;89920.34;;;0.32;78.01
72585;BME280;73873;40.084;32.908;2024-02-23T03:33:55;89927.16;;;0.25;79.10
72585;BME280;73873;40.084;32.908;2024-02-23T03:36:22;89928.88;;;0.36;77.69
72585;BME280;73873;40.084;32.908;2024-02-23T03:38:49;89940.06;;;0.13;79.99
72585;BME280;73873;40.084;32.908;2024-02-23T03:41:15;89940.81;;;0.13;79.98
72585;BME280;73873;40.084;32.908;2024-02-23T03:43:42;89944.91;;;0.14;79.81
72585;BME280;73873;40.084;32.908;2024-02-23T03:46:09;89935.38;;;0.27;78.74
72585;BME280;73873;40.084;32.908;2024-02-23T03:48:36;89935.72;;;0.53;76.38
72585;BME280;73873;40.084;32.908;2024-02-23T03:51:04;89951.22;;;0.67;75.76
72585;BME280;73873;40.084;32.908;2024-02-23T03:53:31;89953.41;;;0.72;75.29
72585;BME280;73873;40.084;32.908;2024-02-23T03:55:58;89950.66;;;0.79;74.72
72585;BME280;73873;40.084;32.908;2024-02-23T03:58:25;89951.91;;;0.71;74.92
72585;BME280;73873;40.084;32.908;2024-02-23T04:00:52;89949.91;;;0.79;74.46
72585;BME280;73873;40.084;32.908;2024-02-23T04:03:19;89952.72;;;0.68;74.83
72585;BME280;73873;40.084;32.908;2024-02-23T04:05:46;89954.88;;;0.23;77.10
72585;BME280;73873;40.084;32.908;2024-02-23T04:08:13;89955.31;;;-0.09;79.52
72585;BME280;73873;40.084;32.908;2024-02-23T04:10:40;89961.09;;;0.06;78.85
72585;BME280;73873;40.084;32.908;2024-02-23T04:13:07;89960.72;;;0.07;78.25
72585;BME280;73873;40.084;32.908;2024-02-23T04:15:34;89959.44;;;0.19;77.06
72585;BME280;73873;40.084;32.908;2024-02-23T04:18:05;89962.25;;;0.32;76.49
72585;BME280;73873;40.084;32.908;2024-02-23T04:20:32;89965.34;;;0.50;75.53
72585;BME280;73873;40.084;32.908;2024-02-23T04:23:00;89967.31;;;0.42;76.04
72585;BME280;73873;40.084;32.908;2024-02-23T04:25:27;89971.78;;;0.45;75.85
72585;BME280;73873;40.084;32.908;2024-02-23T04:27:54;89967.91;;;0.26;77.60
72585;BME280;73873;40.084;32.908;2024-02-23T04:30:21;89973.91;;;0.00;79.68
72585;BME280;73873;40.084;32.908;2024-02-23T04:32:48;89973.81;;;-0.23;80.75
72585;BME280;73873;40.084;32.908;2024-02-23T04:35:15;89974.50;;;-0.19;80.38
72585;BME280;73873;40.084;32.908;2024-02-23T04:37:45;89973.91;;;-0.31;80.91
72585;BME280;73873;40.084;32.908;2024-02-23T04:40:12;89970.03;;;-0.49;81.81
72585;BME280;73873;40.084;32.908;2024-02-23T04:42:39;89974.84;;;-0.48;84.37
72585;BME280;73873;40.084;32.908;2024-02-23T04:45:07;89974.91;;;-0.21;83.63
72585;BME280;73873;40.084;32.908;2024-02-23T04:47:34;89987.16;;;0.16;82.62
72585;BME280;73873;40.084;32.908;2024-02-23T04:50:01;89980.25;;;0.53;80.78
72585;BME280;73873;40.084;32.908;2024-02-23T04:52:28;89983.44;;;0.91;78.77
72585;BME280;73873;40.084;32.908;2024-02-23T04:54:55;89985.63;;;1.16;77.42
72585;BME280;73873;40.084;32.908;2024-02-23T04:57:22;89989.09;;;1.33;76.56
72585;BME280;73873;40.084;32.908;2024-02-23T04:59:49;89995.22;;;1.46;76.15
72585;BME280;73873;40.084;32.908;2024-02-23T05:02:16;89992.88;;;1.52;76.48
72585;BME280;73873;40.084;32.908;2024-02-23T05:04:43;89992.41;;;1.57;76.34
72585;BME280;73873;40.084;32.908;2024-02-23T05:07:10;89994.44;;;1.69;76.16
72585;BME280;73873;40.084;32.908;2024-02-23T05:09:37;89996.84;;;1.80;75.34
72585;BME280;73873;40.084;32.908;2024-02-23T05:12:04;89999.94;;;1.94;75.09
72585;BME280;73873;40.084;32.908;2024-02-23T05:14:31;90000.31;;;2.13;73.26
72585;BME280;73873;40.084;32.908;2024-02-23T05:16:58;90010.06;;;2.32;73.34
72585;BME280;73873;40.084;32.908;2024-02-23T05:19:25;90011.53;;;2.53;71.54
72585;BME280;73873;40.084;32.908;2024-02-23T05:21:52;90005.19;;;2.67;70.61
72585;BME280;73873;40.084;32.908;2024-02-23T05:24:19;90013.41;;;2.85;70.33
72585;BME280;73873;40.084;32.908;2024-02-23T05:26:46;90017.78;;;3.08;68.64
72585;BME280;73873;40.084;32.908;2024-02-23T05:29:13;90012.34;;;3.31;68.57
72585;BME280;73873;40.084;32.908;2024-02-23T05:31:45;90010.75;;;3.50;67.57
72585;BME280;73873;40.084;32.908;2024-02-23T05:34:12;90015.56;;;3.68;68.23
72585;BME280;73873;40.084;32.908;2024-02-23T05:36:39;90022.13;;;3.76;67.26
72585;BME280;73873;40.084;32.908;2024-02-23T05:39:06;90023.53;;;3.81;67.34
72585;BME280;73873;40.084;32.908;2024-02-23T05:41:34;90029.34;;;3.88;66.49
72585;BME280;73873;40.084;32.908;2024-02-23T05:44:01;90033.19;;;4.00;66.96
72585;BME280;73873;40.084;32.908;2024-02-23T05:46:27;90026.88;;;4.10;66.11
72585;BME280;73873;40.084;32.908;2024-02-23T05:48:55;90031.47;;;4.22;65.74
72585;BME280;73873;40.084;32.908;2024-02-23T05:51:22;90029.88;;;4.25;66.34
72585;BME280;73873;40.084;32.908;2024-02-23T05:53:49;90034.78;;;4.10;65.57
72585;BME280;73873;40.084;32.908;2024-02-23T05:56:16;90032.63;;;3.47;67.29
72585;BME280;73873;40.084;32.908;2024-02-23T05:58:43;90036.13;;;3.28;68.63
72585;BME280;73873;40.084;32.908;2024-02-23T06:01:10;90036.56;;;3.55;69.77
72585;BME280;73873;40.084;32.908;2024-02-23T06:03:37;90036.41;;;3.91;67.97
72585;BME280;73873;40.084;32.908;2024-02-23T06:06:07;90033.53;;;4.15;67.33
72585;BME280;73873;40.084;32.908;2024-02-23T06:08:35;90034.00;;;4.39;65.38
72585;BME280;73873;40.084;32.908;2024-02-23T06:11:03;90032.88;;;4.52;65.55
72585;BME280;73873;40.084;32.908;2024-02-23T06:13:31;90032.53;;;4.38;65.37
72585;BME280;73873;40.084;32.908;2024-02-23T06:15:59;90033.06;;;4.33;65.61
72585;BME280;73873;40.084;32.908;2024-02-23T06:18:26;90028.59;;;4.30;65.97
72585;BME280;73873;40.084;32.908;2024-02-23T06:20:53;90040.19;;;4.19;66.70
72585;BME280;73873;40.084;32.908;2024-02-23T06:23:20;90037.06;;;4.37;66.41
72585;BME280;73873;40.084;32.908;2024-02-23T06:25:47;90028.09;;;4.35;66.30
72585;BME280;73873;40.084;32.908;2024-02-23T06:28:14;90033.28;;;4.51;65.86
72585;BME280;73873;40.084;32.908;2024-02-23T06:30:41;90036.00;;;4.47;65.84
72585;BME280;73873;40.084;32.908;2024-02-23T06:33:08;90043.31;;;4.43;66.73
72585;BME280;73873;40.084;32.908;2024-02-23T06:35:35;90039.31;;;4.51;66.92
72585;BME280;73873;40.084;32.908;2024-02-23T06:38:02;90030.53;;;4.67;65.45
72585;BME280;73873;40.084;32.908;2024-02-23T06:40:29;90037.75;;;4.92;64.84
72585;BME280;73873;40.084;32.908;2024-02-23T06:43:11;90037.13;;;4.88;64.04
72585;BME280;73873;40.084;32.908;2024-02-23T06:45:38;90042.28;;;4.92;65.35
72585;BME280;73873;40.084;32.908;2024-02-23T06:48:06;90039.22;;;4.93;65.12
72585;BME280;73873;40.084;32.908;2024-02-23T06:50:33;90031.72;;;4.92;64.16
72585;BME280;73873;40.084;32.908;2024-02-23T06:53:00;90033.00;;;5.00;64.06
72585;BME280;73873;40.084;32.908;2024-02-23T06:55:27;90045.66;;;5.18;63.21
72585;BME280;73873;40.084;32.908;2024-02-23T06:57:54;90041.63;;;5.26;63.75
72585;BME280;73873;40.084;32.908;2024-02-23T07:00:21;90044.94;;;5.04;64.61
72585;BME280;73873;40.084;32.908;2024-02-23T07:02:48;90042.38;;;5.13;63.78
72585;BME280;73873;40.084;32.908;2024-02-23T07:05:15;90039.09;;;5.09;63.10
72585;BME280;73873;40.084;32.908;2024-02-23T07:07:42;90041.75;;;4.97;64.39
72585;BME280;73873;40.084;32.908;2024-02-23T07:10:10;90038.25;;;5.00;63.96
72585;BME280;73873;40.084;32.908;2024-02-23T07:12:36;90039.00;;;5.26;63.92
72585;BME280;73873;40.084;32.908;2024-02-23T07:15:04;90023.69;;;5.68;62.59
72585;BME280;73873;40.084;32.908;2024-02-23T07:17:31;90034.78;;;5.76;63.40
72585;BME280;73873;40.084;32.908;2024-02-23T07:19:58;90031.41;;;5.75;61.84
72585;BME280;73873;40.084;32.908;2024-02-23T07:22:25;90030.03;;;5.70;60.42
72585;BME280;73873;40.084;32.908;2024-02-23T07:24:52;90030.81;;;5.58;62.72
72585;BME280;73873;40.084;32.908;2024-02-23T07:27:19;90027.09;;;5.56;62.48
72585;BME280;73873;40.084;32.908;2024-02-23T07:29:46;90026.13;;;5.62;60.51
72585;BME280;73873;40.084;32.908;2024-02-23T07:32:13;90030.47;;;5.56;61.18
72585;BME280;73873;40.084;32.908;2024-02-23T07:34:41;90033.19;;;5.65;60.46
72585;BME280;73873;40.084;32.908;2024-02-23T07:37:08;90033.97;;;5.53;60.94
72585;BME280;73873;40.084;32.908;2024-02-23T07:39:34;90032.31;;;5.81;60.27
72585;BME280;73873;40.084;32.908;2024-02-23T07:42:02;90034.13;;;5.84;59.49
72585;BME280;73873;40.084;32.908;2024-02-23T07:44:28;90032.22;;;5.72;59.00
72585;BME280;73873;40.084;32.908;2024-02-23T07:46:56;90029.97;;;5.83;58.58
72585;BME280;73873;40.084;32.908;2024-02-23T07:49:23;90034.50;;;5.95;58.69
72585;BME280;73873;40.084;32.908;2024-02-23T07:51:50;90041.84;;;6.35;58.78
72585;BME280;73873;40.084;32.908;2024-02-23T07:54:17;90037.00;;;6.65;57.50
72585;BME280;73873;40.084;32.908;2024-02-23T07:56:44;90041.75;;;6.70;56.69
72585;BME280;73873;40.084;32.908;2024-02-23T07:59:11;90032.47;;;6.96;55.63
72585;BME280;73873;40.084;32.908;2024-02-23T08:01:38;90032.38;;;7.18;54.69
72585;BME280;73873;40.084;32.908;2024-02-23T08:04:05;90036.63;;;7.06;55.30
72585;BME280;73873;40.084;32.908;2024-02-23T08:06:32;90042.06;;;7.03;53.95
72585;BME280;73873;40.084;32.908;2024-02-23T08:08:59;90035.00;;;7.09;54.84
72585;BME280;73873;40.084;32.908;2024-02-23T08:11:26;90029.50;;;7.34;55.02
72585;BME280;73873;40.084;32.908;2024-02-23T08:13:53;90035.19;;;7.15;54.19
72585;BME280;73873;40.084;32.908;2024-02-23T08:16:20;90034.66;;;7.29;52.56
72585;BME280;73873;40.084;32.908;2024-02-23T08:18:47;90030.13;;;7.48;52.61
72585;BME280;73873;40.084;32.908;2024-02-23T08:21:14;90031.16;;;7.59;53.43
72585;BME280;73873;40.084;32.908;2024-02-23T08:23:41;90027.13;;;7.36;52.51
72585;BME280;73873;40.084;32.908;2024-02-23T08:26:08;90039.91;;;7.20;53.94
72585;BME280;73873;40.084;32.908;2024-02-23T08:28:35;90040.34;;;7.27;53.76
72585;BME280;73873;40.084;32.908;2024-02-23T08:31:02;90038.38;;;7.59;54.49
72585;BME280;73873;40.084;32.908;2024-02-23T08:33:29;90032.03;;;7.47;53.14
72585;BME280;73873;40.084;32.908;2024-02-23T08:35:56;90028.69;;;7.56;53.86
72585;BME280;73873;40.084;32.908;2024-02-23T08:38:23;90024.97;;;7.62;53.13
72585;BME280;73873;40.084;32.908;2024-02-23T08:40:50;90027.63;;;7.62;52.45
72585;BME280;73873;40.084;32.908;2024-02-23T08:43:17;90021.78;;;7.77;53.48
72585;BME280;73873;40.084;32.908;2024-02-23T08:45:44;90022.06;;;7.69;53.28
72585;BME280;73873;40.084;32.908;2024-02-23T08:48:11;90020.41;;;7.54;54.34
72585;BME280;73873;40.084;32.908;2024-02-23T08:50:38;90009.69;;;7.76;54.08
72585;BME280;73873;40.084;32.908;2024-02-23T08:53:05;90012.91;;;7.71;53.13
72585;BME280;73873;40.084;32.908;2024-02-23T08:55:32;89998.34;;;7.75;55.70
72585;BME280;73873;40.084;32.908;2024-02-23T08:57:59;90004.56;;;8.18;56.08
72585;BME280;73873;40.084;32.908;2024-02-23T09:00:26;90005.28;;;8.28;52.91
72585;BME280;73873;40.084;32.908;2024-02-23T09:02:53;89992.28;;;8.48;53.56
72585;BME280;73873;40.084;32.908;2024-02-23T09:05:20;89999.38;;;8.42;53.05
72585;BME280;73873;40.084;32.908;2024-02-23T09:07:47;89996.69;;;8.51;52.24
72585;BME280;73873;40.084;32.908;2024-02-23T09:10:14;89999.84;;;8.92;53.18
72585;BME280;73873;40.084;32.908;2024-02-23T09:12:41;90000.06;;;9.12;52.46
72585;BME280;73873;40.084;32.908;2024-02-23T09:15:08;89997.53;;;9.18;52.10
72585;BME280;73873;40.084;32.908;2024-02-23T09:17:35;90007.53;;;9.23;49.57
72585;BME280;73873;40.084;32.908;2024-02-23T09:20:02;89998.41;;;9.48;48.17
72585;BME280;73873;40.084;32.908;2024-02-23T09:22:29;89995.47;;;9.70;46.17
72585;BME280;73873;40.084;32.908;2024-02-23T09:24:57;90000.38;;;9.86;46.54
72585;BME280;73873;40.084;32.908;2024-02-23T09:27:24;89992.44;;;9.62;44.04
72585;BME280;73873;40.084;32.908;2024-02-23T09:29:51;89984.94;;;9.75;46.39
72585;BME280;73873;40.084;32.908;2024-02-23T09:32:18;89980.25;;;9.70;46.28
72585;BME280;73873;40.084;32.908;2024-02-23T09:34:45;89978.34;;;9.47;43.96
72585;BME280;73873;40.084;32.908;2024-02-23T09:37:12;89976.00;;;9.39;44.32
72585;BME280;73873;40.084;32.908;2024-02-23T09:39:39;89978.09;;;9.59;45.98
72585;BME280;73873;40.084;32.908;2024-02-23T09:42:10;89972.56;;;9.72;44.71
72585;BME280;73873;40.084;32.908;2024-02-23T09:44:37;89979.88;;;9.62;42.54
72585;BME280;73873;40.084;32.908;2024-02-23T09:47:05;89979.78;;;8.91;44.74
72585;BME280;73873;40.084;32.908;2024-02-23T09:49:33;89985.41;;;9.26;48.12
72585;BME280;73873;40.084;32.908;2024-02-23T09:52:00;89972.63;;;9.39;45.53
72585;BME280;73873;40.084;32.908;2024-02-23T09:54:27;89969.56;;;8.98;46.26
72585;BME280;73873;40.084;32.908;2024-02-23T09:56:54;89966.94;;;9.22;45.03
72585;BME280;73873;40.084;32.908;2024-02-23T09:59:21;89968.84;;;9.55;45.47
72585;BME280;73873;40.084;32.908;2024-02-23T10:01:48;89962.03;;;9.54;44.55
72585;BME280;73873;40.084;32.908;2024-02-23T10:04:16;89965.72;;;9.80;44.28
72585;BME280;73873;40.084;32.908;2024-02-23T10:06:43;89955.28;;;10.06;43.61
72585;BME280;73873;40.084;32.908;2024-02-23T10:09:10;89953.34;;;10.45;43.12
72585;BME280;73873;40.084;32.908;2024-02-23T10:11:36;89948.81;;;10.22;43.33
72585;BME280;73873;40.084;32.908;2024-02-23T10:14:04;89952.66;;;9.44;44.68
72585;BME280;73873;40.084;32.908;2024-02-23T10:16:31;89952.97;;;9.84;45.70
72585;BME280;73873;40.084;32.908;2024-02-23T10:18:59;89953.19;;;10.34;44.40
72585;BME280;73873;40.084;32.908;2024-02-23T10:21:27;89941.97;;;9.91;45.86
72585;BME280;73873;40.084;32.908;2024-02-23T10:23:55;89948.22;;;9.64;45.59
72585;BME280;73873;40.084;32.908;2024-02-23T10:26:22;89944.88;;;10.32;46.73
72585;BME280;73873;40.084;32.908;2024-02-23T10:28:50;89937.56;;;10.71;43.79
72585;BME280;73873;40.084;32.908;2024-02-23T10:31:17;89942.69;;;10.31;44.27
72585;BME280;73873;40.084;32.908;2024-02-23T10:33:44;89936.81;;;9.49;47.01
72585;BME280;73873;40.084;32.908;2024-02-23T10:36:15;89941.00;;;9.17;47.33
72585;BME280;73873;40.084;32.908;2024-02-23T10:38:45;89937.75;;;9.13;47.32
72585;BME280;73873;40.084;32.908;2024-02-23T10:41:13;89943.53;;;9.12;47.19
72585;BME280;73873;40.084;32.908;2024-02-23T10:43:47;89943.81;;;9.37;48.16
72585;BME280;73873;40.084;32.908;2024-02-23T10:46:15;89944.00;;;9.58;46.55
72585;BME280;73873;40.084;32.908;2024-02-23T10:48:44;89941.53;;;9.69;46.90
72585;BME280;73873;40.084;32.908;2024-02-23T10:51:14;89949.63;;;9.03;48.17
72585;BME280;73873;40.084;32.908;2024-02-23T10:53:46;89946.91;;;9.12;48.18
72585;BME280;73873;40.084;32.908;2024-02-23T10:56:15;89947.19;;;8.90;49.34
72585;BME280;73873;40.084;32.908;2024-02-23T10:58:42;89938.78;;;9.39;47.16
72585;BME280;73873;40.084;32.908;2024-02-23T11:01:10;89934.75;;;9.68;47.19
72585;BME280;73873;40.084;32.908;2024-02-23T11:03:38;89937.13;;;10.05;46.44
72585;BME280;73873;40.084;32.908;2024-02-23T11:06:08;89929.09;;;10.29;44.69
72585;BME280;73873;40.084;32.908;2024-02-23T11:08:35;89926.31;;;10.08;44.79
72585;BME280;73873;40.084;32.908;2024-02-23T11:11:09;89922.84;;;9.78;46.07
72585;BME280;73873;40.084;32.908;2024-02-23T11:13:40;89930.13;;;9.30;47.66
72585;BME280;73873;40.084;32.908;2024-02-23T11:16:08;89923.56;;;9.64;48.71
72585;BME280;73873;40.084;32.908;2024-02-23T11:18:36;89921.25;;;10.10;45.46
72585;BME280;73873;40.084;32.908;2024-02-23T11:21:04;89921.38;;;10.31;44.26
72585;BME280;73873;40.084;32.908;2024-02-23T11:23:47;89914.50;;;10.54;43.52
72585;BME280;73873;40.084;32.908;2024-02-23T11:26:14;89911.19;;;10.59;43.54
72585;BME280;73873;40.084;32.908;2024-02-23T11:28:51;89917.84;;;10.98;43.30
72585;BME280;73873;40.084;32.908;2024-02-23T11:31:20;89918.03;;;10.06;43.94
72585;BME280;73873;40.084;32.908;2024-02-23T11:33:54;89923.91;;;9.57;47.28
72585;BME280;73873;40.084;32.908;2024-02-23T11:36:32;89924.09;;;9.29;46.44
72585;BME280;73873;40.084;32.908;2024-02-23T11:39:00;89914.59;;;9.37;48.17
72585;BME280;73873;40.084;32.908;2024-02-23T11:41:28;89910.56;;;9.42;48.21
72585;BME280;73873;40.084;32.908;2024-02-23T11:43:56;89914.66;;;9.67;46.06
72585;BME280;73873;40.084;32.908;2024-02-23T11:46:24;89916.00;;;9.86;45.51
72585;BME280;73873;40.084;32.908;2024-02-23T11:48:51;89913.91;;;9.90;45.34
72585;BME280;73873;40.084;32.908;2024-02-23T11:51:19;89921.50;;;10.36;45.54
72585;BME280;73873;40.084;32.908;2024-02-23T11:53:47;89917.03;;;10.77;43.97
72585;BME280;73873;40.084;32.908;2024-02-23T11:56:14;89910.81;;;11.16;43.65
72585;BME280;73873;40.084;32.908;2024-02-23T11:58:41;89911.66;;;10.72;43.51
72585;BME280;73873;40.084;32.908;2024-02-23T12:01:09;89909.31;;;10.06;44.69
72585;BME280;73873;40.084;32.908;2024-02-23T12:03:36;89911.34;;;9.57;45.82
72585;BME280;73873;40.084;32.908;2024-02-23T12:06:03;89913.16;;;9.51;47.09
72585;BME280;73873;40.084;32.908;2024-02-23T12:08:31;89911.63;;;9.12;47.29
72585;BME280;73873;40.084;32.908;2024-02-23T12:10:58;89903.53;;;8.82;48.65
72585;BME280;73873;40.084;32.908;2024-02-23T12:13:26;89901.16;;;8.84;48.47
72585;BME280;73873;40.084;32.908;2024-02-23T12:15:53;89902.47;;;9.13;48.47
72585;BME280;73873;40.084;32.908;2024-02-23T12:18:23;89905.63;;;9.50;48.07
72585;BME280;73873;40.084;32.908;2024-02-23T12:20:51;89892.47;;;9.55;46.73
72585;BME280;73873;40.084;32.908;2024-02-23T12:23:18;89891.22;;;9.80;46.60
72585;BME280;73873;40.084;32.908;2024-02-23T12:25:57;89892.56;;;10.29;45.40
72585;BME280;73873;40.084;32.908;2024-02-23T12:28:24;89896.25;;;10.46;44.66
72585;BME280;73873;40.084;32.908;2024-02-23T12:31:01;89893.03;;;9.74;47.58
72585;BME280;73873;40.084;32.908;2024-02-23T12:33:32;89890.97;;;9.93;46.11
72585;BME280;73873;40.084;32.908;2024-02-23T12:36:00;89891.06;;;9.99;45.89
72585;BME280;73873;40.084;32.908;2024-02-23T12:38:27;89888.34;;;10.37;44.97
72585;BME280;73873;40.084;32.908;2024-02-23T12:40:55;89895.69;;;10.42;43.81
72585;BME280;73873;40.084;32.908;2024-02-23T12:43:22;89902.19;;;10.41;44.41
72585;BME280;73873;40.084;32.908;2024-02-23T12:45:55;89897.53;;;10.36;45.07
72585;BME280;73873;40.084;32.908;2024-02-23T12:48:23;89894.31;;;10.32;43.83
72585;BME280;73873;40.084;32.908;2024-02-23T12:50:51;89899.63;;;10.17;45.41
72585;BME280;73873;40.084;32.908;2024-02-23T12:56:06;89886.09;;;10.80;44.65
72585;BME280;73873;40.084;32.908;2024-02-23T12:58:38;89897.84;;;10.88;42.45
72585;BME280;73873;40.084;32.908;2024-02-23T13:01:06;89892.63;;;10.20;44.10
72585;BME280;73873;40.084;32.908;2024-02-23T13:03:34;89891.84;;;9.75;44.53
72585;BME280;73873;40.084;32.908;2024-02-23T13:06:02;89895.81;;;9.94;45.23